Time;durP1;ratioP1;P1;durP2;ratioP2;P2;SDS_P1;SDS_P2;PMS_P1;PMS_P2;Temp;Humidity;BMP_temperature;BMP_pressure;BME280_temperature;BME280_humidity;BME280_pressure;Samples;Min_cycle;Max_cycle;Signal;HPM_P1;HPM_P2
2023/05/20 00:00:59;;;;;;;7.07;3.63;;;;;;;;;;6062793;23;20765;-65
2023/05/20 00:03:29;;;;;;;3.97;3.67;;;;;;;;;;6063785;23;20617;-65
2023/05/20 00:05:57;;;;;;;3.87;3.43;;;;;;;;;;6035663;23;20641;-68
2023/05/20 00:08:26;;;;;;;3.67;3.40;;;;;;;;;;6073572;23;20627;-66
2023/05/20 00:10:54;;;;;;;4.10;3.70;;;;;;;;;;6071863;23;20635;-66
2023/05/20 00:13:23;;;;;;;3.40;3.20;;;;;;;;;;6074463;23;20563;-66
2023/05/20 00:15:53;;;;;;;3.73;3.43;;;;;;;;;;6072719;23;20627;-66
2023/05/20 00:18:21;;;;;;;3.60;3.40;;;;;;;;;;6074219;23;20950;-66
2023/05/20 00:20:52;;;;;;;3.80;3.50;;;;;;;;;;6073212;23;20570;-66
2023/05/20 00:23:20;;;;;;;4.13;3.83;;;;;;;;;;6073832;23;20635;-66
2023/05/20 00:25:48;;;;;;;3.20;3.10;;;;;;;;;;6072833;23;20608;-66
2023/05/20 00:28:16;;;;;;;4.27;3.97;;;;;;;;;;6073301;23;20612;-66
2023/05/20 00:30:44;;;;;;;9.33;4.37;;;;;;;;;;6072022;23;20582;-66
2023/05/20 00:33:13;;;;;;;3.97;3.30;;;;;;;;;;6073449;23;20641;-66
2023/05/20 00:35:41;;;;;;;3.87;3.63;;;;;;;;;;6048201;23;20607;-66
2023/05/20 00:38:11;;;;;;;4.03;3.73;;;;;;;;;;6075299;23;20582;-66
2023/05/20 00:40:40;;;;;;;5.80;3.90;;;;;;;;;;6074031;23;20576;-66
2023/05/20 00:43:08;;;;;;;4.00;3.53;;;;;;;;;;6075383;23;20697;-66
2023/05/20 00:45:37;;;;;;;4.23;3.93;;;;;;;;;;6048041;23;20715;-65
2023/05/20 00:48:06;;;;;;;3.93;3.73;;;;;;;;;;6074468;23;20547;-66
2023/05/20 00:50:34;;;;;;;3.63;3.43;;;;;;;;;;6074062;23;20586;-66
2023/05/20 00:53:02;;;;;;;4.20;3.80;;;;;;;;;;6074920;23;20596;-66
2023/05/20 00:55:32;;;;;;;3.87;3.57;;;;;;;;;;6074150;23;20615;-66
2023/05/20 00:58:00;;;;;;;3.83;3.60;;;;;;;;;;6074535;23;20614;-66
2023/05/20 01:00:29;;;;;;;3.60;3.30;;;;;;;;;;6073349;23;20587;-68
2023/05/20 01:02:57;;;;;;;6.93;3.37;;;;;;;;;;6069976;23;20707;-68
2023/05/20 01:05:25;;;;;;;5.50;3.80;;;;;;;;;;6070593;23;20632;-68
2023/05/20 01:07:53;;;;;;;3.67;3.47;;;;;;;;;;6070098;23;20684;-69
2023/05/20 01:10:23;;;;;;;4.10;3.70;;;;;;;;;;6071198;23;20963;-69
2023/05/20 01:12:54;;;;;;;3.50;3.27;;;;;;;;;;6070740;23;20611;-69
2023/05/20 01:15:24;;;;;;;4.90;4.20;;;;;;;;;;6070908;23;20543;-68
2023/05/20 01:17:53;;;;;;;3.77;3.47;;;;;;;;;;6070976;23;20649;-68
2023/05/20 01:20:22;;;;;;;4.33;4.03;;;;;;;;;;6070435;23;20582;-69
2023/05/20 01:22:53;;;;;;;3.37;3.10;;;;;;;;;;6069547;23;20642;-69
2023/05/20 01:25:22;;;;;;;4.20;3.83;;;;;;;;;;6070681;23;20583;-69
2023/05/20 01:27:51;;;;;;;3.27;3.07;;;;;;;;;;6069248;23;21183;-68
2023/05/20 01:30:20;;;;;;;4.53;3.40;;;;;;;;;;6070802;23;20697;-68
2023/05/20 01:32:51;;;;;;;3.30;3.10;;;;;;;;;;6069985;23;20724;-69
2023/05/20 01:35:19;;;;;;;6.10;3.57;;;;;;;;;;6070391;23;21132;-69
2023/05/20 01:37:48;;;;;;;3.33;3.03;;;;;;;;;;6069853;23;20667;-68
2023/05/20 01:40:17;;;;;;;3.47;3.27;;;;;;;;;;6070579;23;20589;-68
2023/05/20 01:42:51;;;;;;;3.40;3.10;;;;;;;;;;6071779;23;20682;-67
2023/05/20 01:45:19;;;;;;;3.97;3.57;;;;;;;;;;6047250;23;20590;-67
2023/05/20 01:47:48;;;;;;;8.17;3.30;;;;;;;;;;6072278;23;20683;-68
2023/05/20 01:50:17;;;;;;;3.33;3.03;;;;;;;;;;6047252;23;20655;-69
2023/05/20 01:52:46;;;;;;;3.67;3.37;;;;;;;;;;6071926;23;20648;-67
2023/05/20 01:55:15;;;;;;;6.10;3.47;;;;;;;;;;6046134;23;20980;-69
2023/05/20 01:57:45;;;;;;;5.90;3.60;;;;;;;;;;6046993;23;20659;-68
2023/05/20 02:00:14;;;;;;;5.10;3.80;;;;;;;;;;6047957;23;20568;-68
2023/05/20 02:02:42;;;;;;;3.27;3.00;;;;;;;;;;6071125;23;20607;-68
2023/05/20 02:05:13;;;;;;;5.43;3.57;;;;;;;;;;6046452;23;20667;-68
2023/05/20 02:07:44;;;;;;;3.73;3.53;;;;;;;;;;6041674;23;20686;-68
2023/05/20 02:10:12;;;;;;;3.53;3.23;;;;;;;;;;6043779;23;20632;-68
2023/05/20 02:12:40;;;;;;;3.40;3.20;;;;;;;;;;6043676;23;20951;-68
2023/05/20 02:15:10;;;;;;;3.97;3.57;;;;;;;;;;6043899;23;20601;-68
2023/05/20 02:17:39;;;;;;;3.20;3.00;;;;;;;;;;6044382;23;20713;-68
2023/05/20 02:20:09;;;;;;;5.13;3.27;;;;;;;;;;6041906;23;20673;-68
2023/05/20 02:22:37;;;;;;;6.63;3.90;;;;;;;;;;6043888;23;20659;-67
2023/05/20 02:25:05;;;;;;;5.40;2.97;;;;;;;;;;6043434;23;20704;-68
2023/05/20 02:27:34;;;;;;;4.47;4.13;;;;;;;;;;6043356;23;20679;-68
2023/05/20 02:30:02;;;;;;;3.80;3.50;;;;;;;;;;6044400;23;20659;-69
2023/05/20 02:32:32;;;;;;;7.30;3.90;;;;;;;;;;6042659;23;21214;-68
2023/05/20 02:35:01;;;;;;;3.80;3.50;;;;;;;;;;6041781;23;20232;-69
2023/05/20 02:37:32;;;;;;;3.90;3.60;;;;;;;;;;6042717;23;20240;-69
2023/05/20 02:40:00;;;;;;;4.25;3.90;;;;;;;;;;6043259;23;20251;-68
2023/05/20 02:42:28;;;;;;;3.57;3.27;;;;;;;;;;6041232;23;20646;-67
2023/05/20 02:44:57;;;;;;;3.88;3.58;;;;;;;;;;6043135;23;20957;-68
2023/05/20 02:47:25;;;;;;;3.95;3.13;;;;;;;;;;6042840;23;20259;-68
2023/05/20 02:49:55;;;;;;;8.27;3.85;;;;;;;;;;6043967;23;20200;-67
2023/05/20 02:52:23;;;;;;;3.03;2.80;;;;;;;;;;6042031;23;20208;-67
2023/05/20 02:54:52;;;;;;;3.43;3.17;;;;;;;;;;6042254;23;20604;-68
2023/05/20 02:57:20;;;;;;;5.65;3.67;;;;;;;;;;6041228;23;20659;-68
2023/05/20 02:59:48;;;;;;;3.78;3.15;;;;;;;;;;6043410;23;20260;-68
2023/05/20 03:02:16;;;;;;;5.32;3.47;;;;;;;;;;6040605;23;20300;-68
2023/05/20 03:04:46;;;;;;;4.25;3.35;;;;;;;;;;6043228;23;20245;-68
2023/05/20 03:07:18;;;;;;;2.95;2.75;;;;;;;;;;6041338;23;20275;-69
2023/05/20 03:09:46;;;;;;;8.70;3.70;;;;;;;;;;6041783;23;20284;-68
2023/05/20 03:12:14;;;;;;;8.40;3.55;;;;;;;;;;6042131;23;20252;-68
2023/05/20 03:14:43;;;;;;;4.18;3.78;;;;;;;;;;6043761;23;20223;-69
2023/05/20 03:17:11;;;;;;;5.90;3.20;;;;;;;;;;6043526;23;20722;-68
2023/05/20 03:19:40;;;;;;;3.45;3.15;;;;;;;;;;6044030;23;20223;-67
2023/05/20 03:22:08;;;;;;;3.67;3.10;;;;;;;;;;6041421;23;20301;-68
2023/05/20 03:24:37;;;;;;;5.35;3.25;;;;;;;;;;6041540;23;20742;-68
2023/05/20 03:27:06;;;;;;;3.80;3.50;;;;;;;;;;6041635;23;20241;-68
2023/05/20 03:29:36;;;;;;;5.85;3.45;;;;;;;;;;6041227;23;20204;-68
2023/05/20 03:32:05;;;;;;;3.85;3.55;;;;;;;;;;6043259;23;20650;-67
2023/05/20 03:34:33;;;;;;;3.70;3.45;;;;;;;;;;6043541;23;20209;-69
2023/05/20 03:37:02;;;;;;;3.70;3.40;;;;;;;;;;6042810;23;20214;-68
2023/05/20 03:39:31;;;;;;;3.45;3.20;;;;;;;;;;6041715;23;20212;-69
2023/05/20 03:42:00;;;;;;;5.35;3.53;;;;;;;;;;6043834;23;20212;-67
2023/05/20 03:44:28;;;;;;;3.90;3.47;;;;;;;;;;6042863;23;20261;-69
2023/05/20 03:46:58;;;;;;;4.13;3.80;;;;;;;;;;6042659;23;20253;-68
2023/05/20 03:49:26;;;;;;;5.07;3.93;;;;;;;;;;6041995;23;20216;-68
2023/05/20 03:51:54;;;;;;;3.90;3.60;;;;;;;;;;6044193;23;20643;-68
2023/05/20 03:54:23;;;;;;;5.45;3.33;;;;;;;;;;6042546;23;20215;-68
2023/05/20 03:56:53;;;;;;;3.45;3.15;;;;;;;;;;6041522;23;20201;-69
2023/05/20 03:59:23;;;;;;;5.85;3.90;;;;;;;;;;6041089;23;20252;-68
2023/05/20 04:01:51;;;;;;;3.58;3.28;;;;;;;;;;6043219;23;20205;-68
2023/05/20 04:04:19;;;;;;;6.15;3.33;;;;;;;;;;6039994;23;20257;-69
2023/05/20 04:06:48;;;;;;;7.13;3.97;;;;;;;;;;6041895;23;20275;-68
2023/05/20 04:09:16;;;;;;;3.63;3.33;;;;;;;;;;6042898;23;20333;-68
2023/05/20 04:11:44;;;;;;;3.70;3.38;;;;;;;;;;6042535;23;20255;-69
2023/05/20 04:14:13;;;;;;;3.50;3.20;;;;;;;;;;6041143;23;20312;-68
2023/05/20 04:16:43;;;;;;;3.30;3.05;;;;;;;;;;6043141;23;20204;-68
2023/05/20 04:19:12;;;;;;;3.35;3.05;;;;;;;;;;6042658;23;20235;-68
2023/05/20 04:21:43;;;;;;;3.50;3.15;;;;;;;;;;6041514;23;20305;-68
2023/05/20 04:24:11;;;;;;;3.50;3.20;;;;;;;;;;6043146;23;20239;-69
2023/05/20 04:26:40;;;;;;;5.68;3.67;;;;;;;;;;6018003;23;20669;-68
2023/05/20 04:29:08;;;;;;;3.47;3.22;;;;;;;;;;6043406;23;20224;-68
2023/05/20 04:31:37;;;;;;;3.63;3.42;;;;;;;;;;6018092;23;20606;-69
2023/05/20 04:34:06;;;;;;;3.20;3.00;;;;;;;;;;6042293;23;20694;-68
2023/05/20 04:36:37;;;;;;;3.87;3.50;;;;;;;;;;6043440;23;20208;-68
2023/05/20 04:39:05;;;;;;;3.87;3.50;;;;;;;;;;6042065;23;20574;-68
2023/05/20 04:41:34;;;;;;;3.75;3.47;;;;;;;;;;6041705;23;20604;-68
2023/05/20 04:44:02;;;;;;;3.80;3.50;;;;;;;;;;6042454;23;20220;-69
2023/05/20 04:46:32;;;;;;;4.13;3.57;;;;;;;;;;6041156;23;20663;-68
2023/05/20 04:49:00;;;;;;;3.60;3.30;;;;;;;;;;6041760;23;20620;-68
2023/05/20 04:51:30;;;;;;;4.15;3.72;;;;;;;;;;6043293;23;20660;-69
2023/05/20 04:53:58;;;;;;;5.70;3.80;;;;;;;;;;6043160;23;20239;-69
2023/05/20 04:56:27;;;;;;;4.25;3.97;;;;;;;;;;6043498;23;20651;-69
2023/05/20 04:58:55;;;;;;;3.80;3.50;;;;;;;;;;6042339;23;20666;-68
2023/05/20 05:01:24;;;;;;;3.63;3.33;;;;;;;;;;6043452;23;20613;-68
2023/05/20 05:03:52;;;;;;;3.77;3.50;;;;;;;;;;6042951;23;20259;-68
2023/05/20 05:06:20;;;;;;;3.85;3.47;;;;;;;;;;6044941;23;20727;-68
2023/05/20 05:08:50;;;;;;;4.95;4.45;;;;;;;;;;6046729;23;20195;-68
2023/05/20 05:11:18;;;;;;;7.55;4.82;;;;;;;;;;6070958;23;20231;-68
2023/05/20 05:13:47;;;;;;;4.63;3.83;;;;;;;;;;6047015;23;20207;-68
2023/05/20 05:16:15;;;;;;;4.37;3.97;;;;;;;;;;6071852;23;20651;-68
2023/05/20 05:18:44;;;;;;;5.50;3.50;;;;;;;;;;6048563;23;20603;-68
2023/05/20 05:21:12;;;;;;;5.13;4.55;;;;;;;;;;6048596;23;20964;-68
2023/05/20 05:23:41;;;;;;;3.63;3.33;;;;;;;;;;6047437;23;20215;-69
2023/05/20 05:26:11;;;;;;;4.55;4.15;;;;;;;;;;6073091;23;20710;-68
2023/05/20 05:28:42;;;;;;;6.90;4.30;;;;;;;;;;6048966;23;20232;-69
2023/05/20 05:31:13;;;;;;;4.80;3.93;;;;;;;;;;6072957;23;20588;-69
2023/05/20 05:33:41;;;;;;;4.87;4.40;;;;;;;;;;6047471;23;20607;-69
2023/05/20 05:36:10;;;;;;;4.82;4.47;;;;;;;;;;6049750;23;20603;-69
2023/05/20 05:38:38;;;;;;;3.63;3.30;;;;;;;;;;6075522;23;20204;-69
2023/05/20 05:41:06;;;;;;;4.43;4.03;;;;;;;;;;6075855;23;20611;-67
2023/05/20 05:43:36;;;;;;;4.23;3.83;;;;;;;;;;6050611;23;20659;-68
2023/05/20 05:46:05;;;;;;;4.07;3.77;;;;;;;;;;6027793;23;20667;-69
2023/05/20 05:48:33;;;;;;;3.93;3.63;;;;;;;;;;6051181;23;20610;-68
2023/05/20 05:51:02;;;;;;;4.57;4.27;;;;;;;;;;6050772;23;20578;-69
2023/05/20 05:53:30;;;;;;;4.47;4.07;;;;;;;;;;6072234;23;20664;-69
2023/05/20 05:55:58;;;;;;;3.90;3.60;;;;;;;;;;6071735;23;20568;-69
2023/05/20 05:58:27;;;;;;;4.17;3.80;;;;;;;;;;6071294;23;20630;-69
2023/05/20 06:00:57;;;;;;;4.20;3.90;;;;;;;;;;6047394;23;21187;-68
2023/05/20 06:03:25;;;;;;;6.20;4.90;;;;;;;;;;6046602;23;21143;-69
2023/05/20 06:05:53;;;;;;;6.20;4.10;;;;;;;;;;6047591;23;20695;-69
2023/05/20 06:08:22;;;;;;;5.40;5.00;;;;;;;;;;6047625;23;20629;-69
2023/05/20 06:10:50;;;;;;;4.13;3.80;;;;;;;;;;6047393;23;20674;-69
2023/05/20 06:13:19;;;;;;;4.97;4.10;;;;;;;;;;6071610;23;20610;-69
2023/05/20 06:15:49;;;;;;;6.87;4.60;;;;;;;;;;6047859;23;20604;-69
2023/05/20 06:18:19;;;;;;;4.23;3.93;;;;;;;;;;6072610;23;20576;-69
2023/05/20 06:20:55;;;;;;;4.80;4.50;;;;;;;;;;6047750;23;20647;-69
2023/05/20 06:23:23;;;;;;;5.13;4.50;;;;;;;;;;6071857;23;20539;-69
2023/05/20 06:25:58;;;;;;;4.80;4.50;;;;;;;;;;6046707;23;20658;-69
2023/05/20 06:28:27;;;;;;;4.27;3.97;;;;;;;;;;6071933;23;20907;-69
2023/05/20 06:30:55;;;;;;;5.23;4.07;;;;;;;;;;6072936;23;20632;-69
2023/05/20 06:33:27;;;;;;;3.97;3.77;;;;;;;;;;6022704;23;20652;-69
2023/05/20 06:35:56;;;;;;;7.70;4.80;;;;;;;;;;6047341;23;21443;-69
2023/05/20 06:38:24;;;;;;;5.13;4.50;;;;;;;;;;6071975;23;20638;-69
2023/05/20 06:40:53;;;;;;;7.33;5.00;;;;;;;;;;6072270;23;20638;-69
2023/05/20 06:43:21;;;;;;;4.97;4.40;;;;;;;;;;6072003;23;20639;-69
2023/05/20 06:46:05;;;;;;;4.93;4.43;;;;;;;;;;6047621;23;20657;-69
2023/05/20 06:48:44;;;;;;;4.93;4.53;;;;;;;;;;6046452;23;21121;-70
2023/05/20 06:51:13;;;;;;;6.27;5.20;;;;;;;;;;6046781;23;20555;-69
2023/05/20 06:53:41;;;;;;;5.33;4.90;;;;;;;;;;6047294;23;20679;-68
2023/05/20 06:56:10;;;;;;;6.33;4.90;;;;;;;;;;6046787;23;20631;-69
2023/05/20 06:58:38;;;;;;;6.90;4.63;;;;;;;;;;6071119;23;20990;-69
2023/05/20 07:01:06;;;;;;;5.00;4.10;;;;;;;;;;6071601;23;20598;-68
2023/05/20 07:03:34;;;;;;;5.50;4.70;;;;;;;;;;6045064;23;21144;-69
2023/05/20 07:06:04;;;;;;;5.43;3.90;;;;;;;;;;6046553;23;20654;-69
2023/05/20 07:08:32;;;;;;;5.53;4.87;;;;;;;;;;6046774;23;20612;-69
2023/05/20 07:11:03;;;;;;;8.37;5.00;;;;;;;;;;6046066;23;21171;-69
2023/05/20 07:13:31;;;;;;;7.73;4.33;;;;;;;;;;6046563;23;20630;-69
2023/05/20 07:16:00;;;;;;;5.53;4.90;;;;;;;;;;6049477;23;20621;-67
2023/05/20 07:18:28;;;;;;;4.87;4.47;;;;;;;;;;6050013;23;21112;-68
2023/05/20 07:20:58;;;;;;;5.43;4.93;;;;;;;;;;6050396;23;20611;-68
2023/05/20 07:23:41;;;;;;;5.87;5.37;;;;;;;;;;6047941;23;20575;-67
2023/05/20 07:26:11;;;;;;;11.03;4.97;;;;;;;;;;6049743;23;20629;-68
2023/05/20 07:28:39;;;;;;;7.37;5.10;;;;;;;;;;6050667;23;20638;-67
2023/05/20 07:31:07;;;;;;;7.37;4.77;;;;;;;;;;6027378;23;20604;-68
2023/05/20 07:33:42;;;;;;;6.40;5.90;;;;;;;;;;6049368;23;20631;-68
2023/05/20 07:36:10;;;;;;;5.97;5.40;;;;;;;;;;6049139;23;21103;-67
2023/05/20 07:38:41;;;;;;;11.50;5.13;;;;;;;;;;6048941;23;20591;-67
2023/05/20 07:41:11;;;;;;;5.00;4.60;;;;;;;;;;6025773;23;20602;-68
2023/05/20 07:43:39;;;;;;;5.77;5.23;;;;;;;;;;6074409;23;20643;-68
2023/05/20 07:46:08;;;;;;;5.57;5.07;;;;;;;;;;6050575;23;20622;-67
2023/05/20 07:48:36;;;;;;;5.83;5.10;;;;;;;;;;6049195;23;21182;-67
2023/05/20 07:51:05;;;;;;;5.83;5.17;;;;;;;;;;6051113;23;20611;-68
2023/05/20 07:53:35;;;;;;;6.20;5.70;;;;;;;;;;6046547;23;20733;-68
2023/05/20 07:56:04;;;;;;;5.80;5.10;;;;;;;;;;6049582;23;20582;-67
2023/05/20 07:58:33;;;;;;;5.70;5.20;;;;;;;;;;6074238;23;20628;-68
2023/05/20 08:01:02;;;;;;;7.80;6.30;;;;;;;;;;6049327;23;20675;-68
2023/05/20 08:03:30;;;;;;;12.10;4.97;;;;;;;;;;6047982;23;21113;-68
2023/05/20 08:06:09;;;;;;;5.83;5.40;;;;;;;;;;6047404;23;20579;-67
2023/05/20 08:08:39;;;;;;;5.50;5.10;;;;;;;;;;6073285;23;21144;-68
2023/05/20 08:11:14;;;;;;;6.17;5.40;;;;;;;;;;6048810;23;20611;-67
2023/05/20 08:13:43;;;;;;;9.00;5.53;;;;;;;;;;6049375;23;20567;-68
2023/05/20 08:16:11;;;;;;;5.63;5.13;;;;;;;;;;6048330;23;20620;-68
2023/05/20 08:18:40;;;;;;;5.83;5.30;;;;;;;;;;6048142;23;21104;-68
2023/05/20 08:21:08;;;;;;;6.70;6.10;;;;;;;;;;6047601;23;20603;-68
2023/05/20 08:23:37;;;;;;;6.00;5.50;;;;;;;;;;6073420;23;20611;-68
2023/05/20 08:26:05;;;;;;;5.67;5.30;;;;;;;;;;6049762;23;20631;-68
2023/05/20 08:28:37;;;;;;;8.07;5.80;;;;;;;;;;6048546;23;20615;-67
2023/05/20 08:31:05;;;;;;;6.50;5.90;;;;;;;;;;6049911;23;21152;-69
2023/05/20 08:33:34;;;;;;;6.10;5.50;;;;;;;;;;6049224;23;21009;-68
2023/05/20 08:36:02;;;;;;;6.23;5.73;;;;;;;;;;6074363;23;20606;-67
2023/05/20 08:38:31;;;;;;;6.80;6.20;;;;;;;;;;6049216;23;20993;-68
2023/05/20 08:40:59;;;;;;;6.83;6.23;;;;;;;;;;6073611;23;20606;-68
2023/05/20 08:43:29;;;;;;;7.53;6.03;;;;;;;;;;6049122;23;20607;-67
2023/05/20 08:45:58;;;;;;;5.60;5.20;;;;;;;;;;6047507;23;20620;-68
2023/05/20 08:48:28;;;;;;;8.03;5.70;;;;;;;;;;6048896;23;20659;-68
2023/05/20 08:50:58;;;;;;;6.20;5.67;;;;;;;;;;6073148;23;20604;-68
2023/05/20 08:53:27;;;;;;;7.30;5.60;;;;;;;;;;6074900;23;20671;-68
2023/05/20 08:55:56;;;;;;;12.17;6.10;;;;;;;;;;6074152;23;20632;-67
2023/05/20 08:58:27;;;;;;;6.13;5.70;;;;;;;;;;6075417;23;21124;-68
2023/05/20 09:00:55;;;;;;;7.27;6.67;;;;;;;;;;6073265;23;21033;-68
2023/05/20 09:03:25;;;;;;;6.67;5.70;;;;;;;;;;6047980;23;20667;-66
2023/05/20 09:05:56;;;;;;;7.17;6.30;;;;;;;;;;6048672;23;20656;-66
2023/05/20 09:08:26;;;;;;;14.80;7.07;;;;;;;;;;6074461;23;20679;-66
2023/05/20 09:10:54;;;;;;;7.50;6.80;;;;;;;;;;6072619;23;20686;-66
2023/05/20 09:13:24;;;;;;;7.77;7.07;;;;;;;;;;6073410;23;20608;-66
2023/05/20 09:15:52;;;;;;;7.50;6.90;;;;;;;;;;6072263;23;20679;-66
2023/05/20 09:18:21;;;;;;;11.53;6.47;;;;;;;;;;6072482;23;20646;-67
2023/05/20 09:20:51;;;;;;;7.50;6.97;;;;;;;;;;6072576;23;20651;-67
2023/05/20 09:23:20;;;;;;;7.90;7.20;;;;;;;;;;6073069;23;20635;-67
2023/05/20 09:25:50;;;;;;;7.87;7.20;;;;;;;;;;6072949;23;20647;-67
2023/05/20 09:28:22;;;;;;;11.67;7.73;;;;;;;;;;6073425;23;20675;-67
2023/05/20 09:30:51;;;;;;;7.37;6.87;;;;;;;;;;6072955;23;20628;-67
2023/05/20 09:33:20;;;;;;;7.70;7.03;;;;;;;;;;6073495;23;20615;-67
2023/05/20 09:35:50;;;;;;;7.63;6.20;;;;;;;;;;6073283;23;20615;-67
2023/05/20 09:38:20;;;;;;;8.33;7.63;;;;;;;;;;6074204;23;20659;-67
2023/05/20 09:40:49;;;;;;;7.20;6.70;;;;;;;;;;6048326;23;20722;-67
2023/05/20 09:43:17;;;;;;;6.90;6.30;;;;;;;;;;6073786;23;21024;-67
2023/05/20 09:45:46;;;;;;;7.90;7.10;;;;;;;;;;6072126;23;20666;-67
2023/05/20 09:48:15;;;;;;;9.30;7.50;;;;;;;;;;6048106;23;20733;-67
2023/05/20 09:50:43;;;;;;;7.00;6.50;;;;;;;;;;6046375;23;20935;-68
2023/05/20 09:53:12;;;;;;;8.33;6.80;;;;;;;;;;6073715;23;20616;-67
2023/05/20 09:55:42;;;;;;;8.37;7.67;;;;;;;;;;6074052;23;20655;-67
2023/05/20 09:58:13;;;;;;;7.40;6.80;;;;;;;;;;6073909;23;20568;-67
2023/05/20 10:00:41;;;;;;;9.80;7.70;;;;;;;;;;6073331;23;21130;-67
2023/05/20 10:03:10;;;;;;;8.07;7.43;;;;;;;;;;6072072;23;20612;-68
2023/05/20 10:05:42;;;;;;;7.50;6.40;;;;;;;;;;6072880;23;20604;-67
2023/05/20 10:08:26;;;;;;;6.87;6.37;;;;;;;;;;6073001;23;20720;-67
2023/05/20 10:10:59;;;;;;;8.00;7.37;;;;;;;;;;6072692;23;20628;-68
2023/05/20 10:13:39;;;;;;;6.60;6.20;;;;;;;;;;6073807;23;20572;-68
2023/05/20 10:16:12;;;;;;;7.90;7.30;;;;;;;;;;6074176;23;20575;-68
2023/05/20 10:18:46;;;;;;;7.90;7.27;;;;;;;;;;6074455;23;20575;-67
2023/05/20 10:21:17;;;;;;;7.90;7.30;;;;;;;;;;6074954;23;20565;-67
2023/05/20 10:23:46;;;;;;;7.40;6.70;;;;;;;;;;6049595;23;20620;-68
2023/05/20 10:26:16;;;;;;;7.80;7.20;;;;;;;;;;6073831;23;20636;-68
2023/05/20 10:28:44;;;;;;;13.33;8.20;;;;;;;;;;6074693;23;20655;-68
2023/05/20 10:31:16;;;;;;;8.57;7.57;;;;;;;;;;6075005;23;20596;-68
2023/05/20 10:33:45;;;;;;;8.00;7.30;;;;;;;;;;6073962;23;20580;-68
2023/05/20 10:36:24;;;;;;;9.80;7.57;;;;;;;;;;6044417;23;20664;-68
2023/05/20 10:38:54;;;;;;;13.47;7.60;;;;;;;;;;6041893;23;21168;-68
2023/05/20 10:41:25;;;;;;;8.17;7.40;;;;;;;;;;6067813;23;21115;-68
2023/05/20 10:44:03;;;;;;;7.87;7.37;;;;;;;;;;6067227;23;20643;-67
2023/05/20 10:46:31;;;;;;;7.90;7.20;;;;;;;;;;6067550;23;20699;-68
2023/05/20 10:49:00;;;;;;;7.77;7.13;;;;;;;;;;6039092;23;20715;-67
2023/05/20 10:51:30;;;;;;;8.77;7.93;;;;;;;;;;6016991;23;20667;-67
2023/05/20 10:53:59;;;;;;;9.70;7.77;;;;;;;;;;6039370;23;21208;-67
2023/05/20 10:56:28;;;;;;;9.50;8.50;;;;;;;;;;6065282;23;20704;-68
2023/05/20 10:58:57;;;;;;;7.60;7.00;;;;;;;;;;6064982;23;21188;-68
2023/05/20 11:01:26;;;;;;;8.27;7.53;;;;;;;;;;6064702;23;20675;-68
2023/05/20 11:03:55;;;;;;;9.13;8.10;;;;;;;;;;6066605;23;20667;-68
2023/05/20 11:06:27;;;;;;;8.43;7.73;;;;;;;;;;6067573;23;21026;-67
2023/05/20 11:08:55;;;;;;;10.63;7.23;;;;;;;;;;6066646;23;20694;-67
2023/05/20 11:11:24;;;;;;;8.37;7.57;;;;;;;;;;6042430;23;20659;-66
2023/05/20 11:13:53;;;;;;;8.43;7.60;;;;;;;;;;6067370;23;20822;-67
2023/05/20 11:16:21;;;;;;;8.00;7.50;;;;;;;;;;6067408;23;20655;-66
2023/05/20 11:18:50;;;;;;;6.93;6.50;;;;;;;;;;6067208;23;20651;-66
2023/05/20 11:21:19;;;;;;;7.43;6.93;;;;;;;;;;6067708;23;20663;-67
2023/05/20 11:23:47;;;;;;;8.93;8.17;;;;;;;;;;6068091;23;20668;-67
2023/05/20 11:26:15;;;;;;;8.97;8.10;;;;;;;;;;6066573;23;20671;-66
2023/05/20 11:28:43;;;;;;;8.40;7.80;;;;;;;;;;6066624;23;21013;-68
2023/05/20 11:31:15;;;;;;;9.10;8.50;;;;;;;;;;6043149;23;20568;-68
2023/05/20 11:33:44;;;;;;;8.87;8.10;;;;;;;;;;6042284;23;20969;-67
2023/05/20 11:36:13;;;;;;;9.00;7.57;;;;;;;;;;6067168;23;20639;-68
2023/05/20 11:38:42;;;;;;;8.83;8.00;;;;;;;;;;6066503;23;20675;-68
2023/05/20 11:41:10;;;;;;;8.47;7.60;;;;;;;;;;6066266;23;20636;-67
2023/05/20 11:43:40;;;;;;;8.50;7.97;;;;;;;;;;6067114;23;20671;-68
2023/05/20 11:46:08;;;;;;;7.83;7.43;;;;;;;;;;6066072;23;20966;-68
2023/05/20 11:48:40;;;;;;;9.30;8.27;;;;;;;;;;6066475;23;20800;-68
2023/05/20 11:51:09;;;;;;;7.43;7.03;;;;;;;;;;6066518;23;20633;-67
2023/05/20 11:53:41;;;;;;;8.73;8.03;;;;;;;;;;6065997;23;20663;-68
2023/05/20 11:56:09;;;;;;;8.87;8.27;;;;;;;;;;6041523;23;20631;-68
2023/05/20 11:58:38;;;;;;;8.50;8.00;;;;;;;;;;6065606;23;21207;-67
2023/05/20 12:01:06;;;;;;;9.23;8.30;;;;;;;;;;6068054;23;20667;-67
2023/05/20 12:03:34;;;;;;;7.90;7.50;;;;;;;;;;6040668;23;20688;-67
2023/05/20 12:06:04;;;;;;;9.20;8.67;;;;;;;;;;6066922;23;20991;-68
2023/05/20 12:08:32;;;;;;;8.00;7.50;;;;;;;;;;6066232;23;20966;-68
2023/05/20 12:11:01;;;;;;;10.10;9.50;;;;;;;;;;6067882;23;20668;-68
2023/05/20 12:13:29;;;;;;;9.00;8.40;;;;;;;;;;6066243;23;20681;-68
2023/05/20 12:15:57;;;;;;;8.80;8.20;;;;;;;;;;6067176;23;20663;-68
2023/05/20 12:18:26;;;;;;;9.23;8.47;;;;;;;;;;6066536;23;20716;-67
2023/05/20 12:20:54;;;;;;;7.77;7.37;;;;;;;;;;6067487;23;20648;-67
2023/05/20 12:23:24;;;;;;;9.20;8.70;;;;;;;;;;6067666;23;20667;-68
2023/05/20 12:25:52;;;;;;;9.57;8.97;;;;;;;;;;6066960;23;20672;-66
2023/05/20 12:28:20;;;;;;;9.67;9.07;;;;;;;;;;6066306;23;20755;-67
2023/05/20 12:30:48;;;;;;;9.27;8.77;;;;;;;;;;6067033;23;20669;-68
2023/05/20 12:33:17;;;;;;;8.93;8.43;;;;;;;;;;6066401;23;21017;-68
2023/05/20 12:35:45;;;;;;;9.83;8.93;;;;;;;;;;6066707;23;20672;-68
2023/05/20 12:38:13;;;;;;;9.30;8.50;;;;;;;;;;6066246;23;20671;-67
2023/05/20 12:40:43;;;;;;;9.30;8.73;;;;;;;;;;6067068;23;20656;-68
2023/05/20 12:43:12;;;;;;;10.67;9.70;;;;;;;;;;6066399;23;20967;-68
2023/05/20 12:45:40;;;;;;;10.23;9.30;;;;;;;;;;6065652;23;21262;-67
2023/05/20 12:48:08;;;;;;;9.13;8.57;;;;;;;;;;6065678;23;20668;-67
2023/05/20 12:50:36;;;;;;;10.10;9.40;;;;;;;;;;6065688;23;20674;-67
2023/05/20 12:53:05;;;;;;;14.43;9.50;;;;;;;;;;6065978;23;21196;-68
2023/05/20 12:55:33;;;;;;;12.43;11.33;;;;;;;;;;6065862;23;20659;-67
2023/05/20 12:58:02;;;;;;;10.20;9.40;;;;;;;;;;6066169;23;20723;-67
2023/05/20 13:00:31;;;;;;;9.57;8.77;;;;;;;;;;6065616;23;20707;-67
2023/05/20 13:02:59;;;;;;;8.73;8.20;;;;;;;;;;6064467;23;21011;-67
2023/05/20 13:05:28;;;;;;;8.80;8.13;;;;;;;;;;6065501;23;20679;-67
2023/05/20 13:07:56;;;;;;;8.33;7.93;;;;;;;;;;6035524;23;20715;-67
2023/05/20 13:10:24;;;;;;;9.37;8.67;;;;;;;;;;6034920;23;20693;-67
2023/05/20 13:12:52;;;;;;;8.40;8.00;;;;;;;;;;6036541;23;20665;-68
2023/05/20 13:15:22;;;;;;;9.00;8.20;;;;;;;;;;6036684;23;20671;-67
2023/05/20 13:17:50;;;;;;;8.43;8.03;;;;;;;;;;6037083;23;20666;-67
2023/05/20 13:20:18;;;;;;;9.10;8.40;;;;;;;;;;6040964;23;20681;-67
2023/05/20 13:22:46;;;;;;;9.73;8.90;;;;;;;;;;6044336;23;20616;-67
2023/05/20 13:25:14;;;;;;;9.00;8.40;;;;;;;;;;6042696;23;20612;-67
2023/05/20 13:27:43;;;;;;;8.83;8.23;;;;;;;;;;6043566;23;21036;-68
2023/05/20 13:30:11;;;;;;;20.70;9.83;;;;;;;;;;6042358;23;21114;-68
2023/05/20 13:32:41;;;;;;;8.80;8.30;;;;;;;;;;6043916;23;20687;-68
2023/05/20 13:35:09;;;;;;;9.63;9.03;;;;;;;;;;6043152;23;20573;-68
2023/05/20 13:37:37;;;;;;;9.30;8.60;;;;;;;;;;6045798;23;20664;-68
2023/05/20 13:40:07;;;;;;;9.13;8.40;;;;;;;;;;6043749;23;21263;-66
2023/05/20 13:42:35;;;;;;;10.40;9.60;;;;;;;;;;6044841;23;20676;-68
2023/05/20 13:45:03;;;;;;;9.27;8.67;;;;;;;;;;6045341;23;20668;-68
2023/05/20 13:47:32;;;;;;;9.70;9.10;;;;;;;;;;6044458;23;20611;-68
2023/05/20 13:50:01;;;;;;;10.50;9.90;;;;;;;;;;6044623;23;20660;-67
2023/05/20 13:52:30;;;;;;;8.83;8.33;;;;;;;;;;6045212;23;20604;-68
2023/05/20 13:54:59;;;;;;;8.93;8.43;;;;;;;;;;6018161;23;21192;-68
2023/05/20 13:57:27;;;;;;;9.30;8.57;;;;;;;;;;6045488;23;20609;-69
2023/05/20 13:59:55;;;;;;;8.67;8.10;;;;;;;;;;6043717;23;20760;-65
2023/05/20 14:02:23;;;;;;;9.90;9.10;;;;;;;;;;6042977;23;20616;-65
2023/05/20 14:04:52;;;;;;;9.77;9.17;;;;;;;;;;6044466;23;21136;-67
2023/05/20 14:07:21;;;;;;;10.40;9.50;;;;;;;;;;6060966;23;20635;-67
2023/05/20 14:09:50;;;;;;;8.90;8.40;;;;;;;;;;6070434;23;20760;-68
2023/05/20 14:12:18;;;;;;;9.03;8.53;;;;;;;;;;6071322;23;20832;-66
2023/05/20 14:14:46;;;;;;;9.87;9.27;;;;;;;;;;6072729;23;20648;-67
2023/05/20 14:17:14;;;;;;;10.50;9.80;;;;;;;;;;6073020;23;20607;-68
2023/05/20 14:19:43;;;;;;;9.67;9.10;;;;;;;;;;6072530;23;20719;-68
2023/05/20 14:22:14;;;;;;;9.57;9.07;;;;;;;;;;6048677;23;20688;-68
2023/05/20 14:24:43;;;;;;;9.83;9.27;;;;;;;;;;6045846;23;20648;-68
2023/05/20 14:27:12;;;;;;;10.77;10.07;;;;;;;;;;6048484;23;20589;-68
2023/05/20 14:29:41;;;;;;;10.07;9.07;;;;;;;;;;6070595;23;20673;-67
2023/05/20 14:32:10;;;;;;;10.47;9.43;;;;;;;;;;6074215;23;20604;-68
2023/05/20 14:34:38;;;;;;;9.53;8.97;;;;;;;;;;6071536;23;20664;-68
2023/05/20 14:37:08;;;;;;;12.20;11.40;;;;;;;;;;6072794;23;20604;-66
2023/05/20 14:39:37;;;;;;;10.10;9.50;;;;;;;;;;6071672;23;20671;-66
2023/05/20 14:42:06;;;;;;;10.50;9.20;;;;;;;;;;6072332;23;20603;-66
2023/05/20 14:44:34;;;;;;;9.93;9.33;;;;;;;;;;6072510;23;20684;-67
2023/05/20 14:47:03;;;;;;;10.40;9.70;;;;;;;;;;6073637;23;20607;-67
2023/05/20 14:49:31;;;;;;;10.30;9.70;;;;;;;;;;6071258;23;20655;-68
2023/05/20 14:51:59;;;;;;;11.53;10.60;;;;;;;;;;6071407;23;20644;-68